sensor_id;sensor_type;location;lat;lon;timestamp;pressure;altitude;pressure_sealevel;temperature;humidity
76137;BME280;65394;53.172;18.164;2023-03-13T18:10:45;99385.00;;;10.50;64.70
76137;BME280;65394;53.172;18.164;2023-03-13T18:13:12;99380.39;;;10.43;64.15
76137;BME280;65394;53.172;18.164;2023-03-13T18:15:38;99378.17;;;10.40;67.77
76137;BME280;65394;53.172;18.164;2023-03-13T18:18:05;99373.77;;;10.36;65.76
76137;BME280;65394;53.172;18.164;2023-03-13T18:20:32;99367.44;;;10.32;69.52
76137;BME280;65394;53.172;18.164;2023-03-13T18:22:58;99362.63;;;10.32;66.88
76137;BME280;65394;53.172;18.164;2023-03-13T18:25:27;99355.99;;;10.32;67.37
76137;BME280;65394;53.172;18.164;2023-03-13T18:27:53;99344.88;;;10.32;68.28
76137;BME280;65394;53.172;18.164;2023-03-13T18:30:22;99335.88;;;10.34;67.28
76137;BME280;65394;53.172;18.164;2023-03-13T18:32:49;99340.72;;;10.26;66.31
76137;BME280;65394;53.172;18.164;2023-03-13T18:35:16;99336.80;;;10.32;66.33
76137;BME280;65394;53.172;18.164;2023-03-13T18:37:45;99325.71;;;10.30;67.49
76137;BME280;65394;53.172;18.164;2023-03-13T18:40:24;99322.47;;;10.31;67.43
76137;BME280;65394;53.172;18.164;2023-03-13T18:42:51;99325.39;;;10.32;65.13
76137;BME280;65394;53.172;18.164;2023-03-13T18:45:20;99317.83;;;10.28;67.40
76137;BME280;65394;53.172;18.164;2023-03-13T18:47:47;99311.46;;;10.25;67.29
76137;BME280;65394;53.172;18.164;2023-03-13T18:50:52;99315.69;;;10.22;68.41
76137;BME280;65394;53.172;18.164;2023-03-13T18:53:11;99321.93;;;10.23;69.54
76137;BME280;65394;53.172;18.164;2023-03-13T18:55:37;99328.92;;;10.26;69.94
76137;BME280;65394;53.172;18.164;2023-03-13T18:58:04;99325.98;;;10.27;68.83
76137;BME280;65394;53.172;18.164;2023-03-13T19:00:33;99323.52;;;10.30;69.05
76137;BME280;65394;53.172;18.164;2023-03-13T19:02:59;99320.88;;;10.32;67.06
76137;BME280;65394;53.172;18.164;2023-03-13T19:05:26;99319.93;;;10.31;68.30
76137;BME280;65394;53.172;18.164;2023-03-13T19:07:53;99320.87;;;10.32;69.30
76137;BME280;65394;53.172;18.164;2023-03-13T19:12:50;99327.40;;;10.34;68.20
76137;BME280;65394;53.172;18.164;2023-03-13T19:15:17;99337.22;;;10.33;69.58
76137;BME280;65394;53.172;18.164;2023-03-13T19:17:44;99333.48;;;10.32;67.68
76137;BME280;65394;53.172;18.164;2023-03-13T19:20:19;99331.27;;;10.32;67.42
76137;BME280;65394;53.172;18.164;2023-03-13T19:22:46;99331.36;;;10.32;67.90
76137;BME280;65394;53.172;18.164;2023-03-13T19:25:13;99330.32;;;10.34;67.77
76137;BME280;65394;53.172;18.164;2023-03-13T19:27:43;99325.71;;;10.35;68.31
76137;BME280;65394;53.172;18.164;2023-03-13T19:30:30;99318.01;;;10.36;67.99
76137;BME280;65394;53.172;18.164;2023-03-13T19:32:56;99311.99;;;10.37;68.34
76137;BME280;65394;53.172;18.164;2023-03-13T19:35:23;99313.58;;;10.38;68.21
76137;BME280;65394;53.172;18.164;2023-03-13T19:37:50;99320.94;;;10.39;67.36
76137;BME280;65394;53.172;18.164;2023-03-13T19:40:22;99320.88;;;10.41;68.63
76137;BME280;65394;53.172;18.164;2023-03-13T19:42:49;99324.34;;;10.45;69.11
76137;BME280;65394;53.172;18.164;2023-03-13T19:45:17;99322.05;;;10.49;67.51
76137;BME280;65394;53.172;18.164;2023-03-13T19:47:46;99315.19;;;10.50;68.84
76137;BME280;65394;53.172;18.164;2023-03-13T19:50:16;99302.09;;;10.52;67.09
76137;BME280;65394;53.172;18.164;2023-03-13T19:52:43;99300.72;;;10.52;68.42
76137;BME280;65394;53.172;18.164;2023-03-13T19:55:11;99296.83;;;10.54;67.10
76137;BME280;65394;53.172;18.164;2023-03-13T19:57:38;99303.14;;;10.55;67.33
76137;BME280;65394;53.172;18.164;2023-03-13T20:00:05;99309.55;;;10.58;68.25
76137;BME280;65394;53.172;18.164;2023-03-13T20:02:38;99311.33;;;10.62;68.15
76137;BME280;65394;53.172;18.164;2023-03-13T20:05:06;99312.29;;;10.65;68.48
76137;BME280;65394;53.172;18.164;2023-03-13T20:07:32;99305.16;;;10.69;67.38
76137;BME280;65394;53.172;18.164;2023-03-13T20:09:59;99302.98;;;10.69;67.63
76137;BME280;65394;53.172;18.164;2023-03-13T20:12:26;99305.63;;;10.70;68.60
76137;BME280;65394;53.172;18.164;2023-03-13T20:14:53;99309.39;;;10.76;67.45
76137;BME280;65394;53.172;18.164;2023-03-13T20:17:19;99304.64;;;10.75;68.00
76137;BME280;65394;53.172;18.164;2023-03-13T20:19:46;99295.23;;;10.77;67.94
76137;BME280;65394;53.172;18.164;2023-03-13T20:22:12;99288.73;;;10.78;67.23
76137;BME280;65394;53.172;18.164;2023-03-13T20:24:39;99284.57;;;10.78;67.24
76137;BME280;65394;53.172;18.164;2023-03-13T20:27:05;99283.73;;;10.76;67.59
76137;BME280;65394;53.172;18.164;2023-03-13T20:29:32;99277.55;;;10.75;67.98
76137;BME280;65394;53.172;18.164;2023-03-13T20:31:59;99273.48;;;10.76;66.77
76137;BME280;65394;53.172;18.164;2023-03-13T20:34:27;99267.72;;;10.72;67.42
76137;BME280;65394;53.172;18.164;2023-03-13T20:36:53;99268.55;;;10.70;67.61
76137;BME280;65394;53.172;18.164;2023-03-13T20:39:22;99265.00;;;10.71;67.37
76137;BME280;65394;53.172;18.164;2023-03-13T20:41:50;99266.39;;;10.74;67.33
76137;BME280;65394;53.172;18.164;2023-03-13T20:44:16;99267.50;;;10.80;67.18
76137;BME280;65394;53.172;18.164;2023-03-13T20:46:43;99261.33;;;10.83;66.65
76137;BME280;65394;53.172;18.164;2023-03-13T20:49:09;99257.63;;;10.82;67.71
76137;BME280;65394;53.172;18.164;2023-03-13T20:51:36;99254.29;;;10.87;66.91
76137;BME280;65394;53.172;18.164;2023-03-13T20:54:03;99248.64;;;10.89;66.96
76137;BME280;65394;53.172;18.164;2023-03-13T20:56:29;99248.52;;;10.94;66.57
76137;BME280;65394;53.172;18.164;2023-03-13T20:58:56;99247.59;;;10.96;67.45
76137;BME280;65394;53.172;18.164;2023-03-13T21:01:22;99255.56;;;11.00;66.89
76137;BME280;65394;53.172;18.164;2023-03-13T21:03:50;99257.36;;;11.08;66.05
76137;BME280;65394;53.172;18.164;2023-03-13T21:06:17;99255.98;;;11.13;65.86
76137;BME280;65394;53.172;18.164;2023-03-13T21:08:44;99253.23;;;11.18;65.92
76137;BME280;65394;53.172;18.164;2023-03-13T21:11:12;99252.73;;;11.22;66.21
76137;BME280;65394;53.172;18.164;2023-03-13T21:13:40;99258.30;;;11.22;66.46
76137;BME280;65394;53.172;18.164;2023-03-13T21:16:07;99262.60;;;11.25;65.87
76137;BME280;65394;53.172;18.164;2023-03-13T21:18:34;99264.63;;;11.24;66.66
76137;BME280;65394;53.172;18.164;2023-03-13T21:21:13;99256.03;;;11.25;66.06
76137;BME280;65394;53.172;18.164;2023-03-13T21:23:42;99249.32;;;11.26;66.00
76137;BME280;65394;53.172;18.164;2023-03-13T21:26:09;99247.08;;;11.26;65.67
76137;BME280;65394;53.172;18.164;2023-03-13T21:28:37;99247.88;;;11.28;65.81
76137;BME280;65394;53.172;18.164;2023-03-13T21:31:13;99241.14;;;11.31;65.41
76137;BME280;65394;53.172;18.164;2023-03-13T21:33:41;99240.81;;;11.30;66.12
76137;BME280;65394;53.172;18.164;2023-03-13T21:36:09;99243.56;;;11.32;65.74
76137;BME280;65394;53.172;18.164;2023-03-13T21:38:36;99239.36;;;11.34;65.49
76137;BME280;65394;53.172;18.164;2023-03-13T21:41:08;99239.71;;;11.34;65.43
76137;BME280;65394;53.172;18.164;2023-03-13T21:43:35;99234.70;;;11.31;66.04
76137;BME280;65394;53.172;18.164;2023-03-13T21:46:03;99235.42;;;11.29;66.56
76137;BME280;65394;53.172;18.164;2023-03-13T21:48:29;99230.23;;;11.25;66.98
76137;BME280;65394;53.172;18.164;2023-03-13T21:50:56;99222.86;;;11.35;66.33
76137;BME280;65394;53.172;18.164;2023-03-13T21:53:22;99223.04;;;11.42;65.63
76137;BME280;65394;53.172;18.164;2023-03-13T21:55:50;99221.11;;;11.42;66.03
76137;BME280;65394;53.172;18.164;2023-03-13T21:58:17;99214.33;;;11.40;65.85
76137;BME280;65394;53.172;18.164;2023-03-13T22:00:44;99208.99;;;11.40;65.62
76137;BME280;65394;53.172;18.164;2023-03-13T22:03:11;99203.92;;;11.36;65.45
76137;BME280;65394;53.172;18.164;2023-03-13T22:05:42;99193.82;;;11.35;65.52
76137;BME280;65394;53.172;18.164;2023-03-13T22:08:10;99190.83;;;11.30;66.35
76137;BME280;65394;53.172;18.164;2023-03-13T22:10:37;99187.73;;;11.30;66.05
76137;BME280;65394;53.172;18.164;2023-03-13T22:13:05;99183.70;;;11.34;65.45
76137;BME280;65394;53.172;18.164;2023-03-13T22:15:32;99182.55;;;11.32;66.34
76137;BME280;65394;53.172;18.164;2023-03-13T22:17:59;99177.77;;;11.34;65.87
76137;BME280;65394;53.172;18.164;2023-03-13T22:20:26;99168.63;;;11.35;65.25
76137;BME280;65394;53.172;18.164;2023-03-13T22:22:53;99160.46;;;11.33;65.12
76137;BME280;65394;53.172;18.164;2023-03-13T22:25:19;99151.27;;;11.32;65.42
76137;BME280;65394;53.172;18.164;2023-03-13T22:27:46;99141.50;;;11.30;65.47
76137;BME280;65394;53.172;18.164;2023-03-13T22:30:13;99131.60;;;11.32;65.12
76137;BME280;65394;53.172;18.164;2023-03-13T22:32:39;99126.74;;;11.32;65.58
76137;BME280;65394;53.172;18.164;2023-03-13T22:35:06;99119.86;;;11.32;65.95
76137;BME280;65394;53.172;18.164;2023-03-13T22:37:33;99113.31;;;11.31;65.83
76137;BME280;65394;53.172;18.164;2023-03-13T22:40:00;99120.48;;;11.34;65.85
76137;BME280;65394;53.172;18.164;2023-03-13T22:42:27;99118.17;;;11.34;65.20
76137;BME280;65394;53.172;18.164;2023-03-13T22:44:54;99118.04;;;11.31;66.03
76137;BME280;65394;53.172;18.164;2023-03-13T22:47:20;99119.45;;;11.34;65.42
76137;BME280;65394;53.172;18.164;2023-03-13T22:49:47;99107.17;;;11.33;65.94
76137;BME280;65394;53.172;18.164;2023-03-13T22:52:13;99092.86;;;11.37;64.87
76137;BME280;65394;53.172;18.164;2023-03-13T22:54:40;99094.60;;;11.40;64.97
76137;BME280;65394;53.172;18.164;2023-03-13T22:57:06;99096.89;;;11.43;65.68
76137;BME280;65394;53.172;18.164;2023-03-13T22:59:33;99103.45;;;11.41;66.17
76137;BME280;65394;53.172;18.164;2023-03-13T23:02:00;99112.88;;;11.49;65.15
76137;BME280;65394;53.172;18.164;2023-03-13T23:04:27;99110.77;;;11.53;64.74
76137;BME280;65394;53.172;18.164;2023-03-13T23:06:53;99107.23;;;11.55;65.63
76137;BME280;65394;53.172;18.164;2023-03-13T23:09:20;99104.58;;;11.57;64.85
76137;BME280;65394;53.172;18.164;2023-03-13T23:11:47;99101.91;;;11.59;65.66
76137;BME280;65394;53.172;18.164;2023-03-13T23:14:13;99105.80;;;11.69;64.93
76137;BME280;65394;53.172;18.164;2023-03-13T23:16:40;99111.45;;;11.73;64.68
76137;BME280;65394;53.172;18.164;2023-03-13T23:19:06;99112.65;;;11.75;64.99
76137;BME280;65394;53.172;18.164;2023-03-13T23:21:33;99107.27;;;11.77;64.92
76137;BME280;65394;53.172;18.164;2023-03-13T23:23:59;99102.77;;;11.78;64.74
76137;BME280;65394;53.172;18.164;2023-03-13T23:26:26;99106.77;;;11.80;64.28
76137;BME280;65394;53.172;18.164;2023-03-13T23:28:52;99107.14;;;11.73;65.31
76137;BME280;65394;53.172;18.164;2023-03-13T23:31:20;99103.30;;;11.75;64.74
76137;BME280;65394;53.172;18.164;2023-03-13T23:33:48;99099.38;;;11.73;65.20
76137;BME280;65394;53.172;18.164;2023-03-13T23:36:17;99095.50;;;11.78;64.39
76137;BME280;65394;53.172;18.164;2023-03-13T23:38:48;99084.82;;;11.77;64.91
76137;BME280;65394;53.172;18.164;2023-03-13T23:41:15;99085.53;;;11.78;64.80
76137;BME280;65394;53.172;18.164;2023-03-13T23:43:42;99085.48;;;11.79;64.65
76137;BME280;65394;53.172;18.164;2023-03-13T23:46:20;99083.27;;;11.80;64.27
76137;BME280;65394;53.172;18.164;2023-03-13T23:48:51;99081.71;;;11.78;64.34
76137;BME280;65394;53.172;18.164;2023-03-13T23:51:17;99084.70;;;11.73;65.08
76137;BME280;65394;53.172;18.164;2023-03-13T23:53:52;99075.75;;;11.74;64.73
76137;BME280;65394;53.172;18.164;2023-03-13T23:56:23;99080.83;;;11.76;64.54
76137;BME280;65394;53.172;18.164;2023-03-13T23:58:53;99072.65;;;11.79;64.29
